Strona główna
METAR-TAF:

METAR-TAF

Lotnisko :

Groote Eylandt, Australia

Szerokość geograficzna: 13-58-30S, Długość geograficzna: 136-27-36E, wysokość: 16 m

Aktualna obserwacja pogody

Raport powstał 47 minut temu, godzina 07:00 UTC
Wiatr 8 kt od południe
Temperatura 29°C
Wilgotność 79%
Ciśnienie 1002 hPa
Widzialność 10 km lub więcej
Przerywane chmury na wysokości 2200 ft
Przerywane chmury na wysokości 3100 ft
Przerywane chmury na wysokości 5100 ft

METAR: YGTE 220700Z AUTO 17008KT 9999 // BKN022 BKN031 BKN051 29/25 Q1002

czas: 17:17 (07:47 UTC)


TAF: brakujący

Obserwacja i prognoza pogody dla ponad 4000 lotnisk (raport METAR i TAF).

Dostępne stacje oznaczono żółtymi i czerwonymi punktami na mapie.

Najedź kursorem aby zobaczyć nazwę stacji.

Kliknij aby zobaczyć obserwacje i prognozy pogody.

Aby zmienić mapę: kliknij na zielony przycisk z czarnym krzyżykiem, aby powiększyć; na zielony przycisk z myślnikiem, aby pomniejszyć; na zielone strzałki, aby przejść do map sąsiednich.


METAR-TAF: